Time;durP1;ratioP1;P1;durP2;ratioP2;P2;SDS_P1;SDS_P2;PMS_P1;PMS_P2;Temp;Humidity;BMP_temperature;BMP_pressure;BME280_temperature;BME280_humidity;BME280_pressure;Samples;Min_cycle;Max_cycle;Signal;HPM_P1;HPM_P2
2022/07/05 00:00:53;;;;;;;7.15;3.47;;;;;;;27.50;49.32;100842.97;5020644;28;20057;-77
2022/07/05 00:03:20;;;;;;;4.13;2.58;;;;;;;27.52;49.57;100845.53;5019047;28;20072;-77
2022/07/05 00:05:48;;;;;;;5.07;2.42;;;;;;;27.52;49.37;100845.53;5020126;28;20389;-76
2022/07/05 00:08:16;;;;;;;5.15;3.03;;;;;;;27.52;49.57;100846.38;5020038;28;20135;-76
2022/07/05 00:10:43;;;;;;;5.15;2.72;;;;;;;27.54;49.41;100854.34;5020023;28;20049;-76
2022/07/05 00:13:11;;;;;;;5.60;2.90;;;;;;;27.53;49.27;100856.22;5019985;28;20402;-76
2022/07/05 00:15:38;;;;;;;3.45;2.35;;;;;;;27.54;49.84;100859.78;5022515;28;20048;-77
2022/07/05 00:18:06;;;;;;;3.35;2.30;;;;;;;27.55;49.86;100853.31;5038982;28;20041;-77
2022/07/05 00:20:33;;;;;;;4.78;2.38;;;;;;;27.56;49.61;100857.72;5039971;28;20049;-77
2022/07/05 00:23:01;;;;;;;3.38;2.28;;;;;;;27.56;49.87;100861.28;5038417;28;20049;-77
2022/07/05 00:25:28;;;;;;;4.95;3.00;;;;;;;27.56;49.59;100864.00;5039444;28;20049;-77
2022/07/05 00:27:56;;;;;;;8.75;3.03;;;;;;;27.56;49.47;100874.88;5040117;28;20060;-77
2022/07/05 00:30:23;;;;;;;7.10;2.85;;;;;;;27.57;49.60;100875.72;5040215;28;20045;-76
2022/07/05 00:32:51;;;;;;;6.13;2.55;;;;;;;27.59;49.67;100876.41;5038552;28;20056;-77
2022/07/05 00:35:18;;;;;;;4.68;2.55;;;;;;;27.59;49.69;100884.56;5038695;28;20381;-77
2022/07/05 00:37:45;;;;;;;5.38;2.70;;;;;;;27.59;49.58;100879.13;5038389;28;20396;-76
2022/07/05 00:40:13;;;;;;;3.80;2.25;;;;;;;27.59;49.62;100884.56;5038447;28;20053;-76
2022/07/05 00:42:40;;;;;;;4.20;2.35;;;;;;;27.59;49.74;100890.84;5038245;28;20049;-76
2022/07/05 00:45:08;;;;;;;3.78;2.75;;;;;;;27.60;49.61;100894.41;5036573;28;20041;-75
2022/07/05 00:47:35;;;;;;;6.05;2.75;;;;;;;27.59;49.83;100896.28;5037003;28;20080;-76
2022/07/05 00:50:03;;;;;;;4.32;2.53;;;;;;;27.59;49.81;100896.28;5035615;28;20049;-76
2022/07/05 00:52:31;;;;;;;6.22;2.58;;;;;;;27.60;49.61;100897.13;5037483;28;20045;-76
2022/07/05 00:54:59;;;;;;;5.47;2.30;;;;;;;27.60;49.43;100902.56;5034810;28;20056;-76
2022/07/05 00:57:27;;;;;;;3.60;2.22;;;;;;;27.60;49.69;100895.25;5036469;28;20049;-76
2022/07/05 00:59:54;;;;;;;4.05;3.00;;;;;;;27.61;49.50;100894.19;5035004;28;20053;-76
2022/07/05 01:02:23;;;;;;;7.57;2.40;;;;;;;27.63;49.41;100901.31;5035376;28;20061;-76
2022/07/05 01:04:51;;;;;;;4.90;2.63;;;;;;;27.60;49.45;100892.53;5034034;28;20054;-76
2022/07/05 01:07:21;;;;;;;5.65;2.53;;;;;;;27.63;49.75;100901.31;5035236;28;20090;-75
2022/07/05 01:09:49;;;;;;;4.47;2.30;;;;;;;27.63;49.77;100909.47;5034232;28;20049;-75
2022/07/05 01:12:17;;;;;;;5.97;3.03;;;;;;;27.63;49.63;100904.91;5035664;28;20041;-75
2022/07/05 01:14:45;;;;;;;4.97;2.70;;;;;;;27.63;49.42;100904.91;5035936;28;20056;-75
2022/07/05 01:17:15;;;;;;;5.15;2.60;;;;;;;27.64;49.40;100908.47;5032941;28;20057;-75
2022/07/05 01:19:43;;;;;;;2.97;2.10;;;;;;;27.64;49.43;100914.75;5030849;28;20072;-75
2022/07/05 01:22:19;;;;;;;4.15;2.70;;;;;;;27.65;49.80;100912.88;5015850;28;20045;-76
2022/07/05 01:24:48;;;;;;;3.30;2.45;;;;;;;27.65;49.80;100919.16;5014776;28;20465;-76
2022/07/05 01:27:17;;;;;;;4.68;2.47;;;;;;;27.66;49.60;100914.56;5013847;28;20389;-76
2022/07/05 01:29:44;;;;;;;4.53;2.88;;;;;;;27.66;49.46;100926.28;5027850;28;20045;-76
2022/07/05 01:32:13;;;;;;;8.38;2.53;;;;;;;27.67;49.58;100938.00;5035651;28;20512;-77
2022/07/05 01:34:41;;;;;;;4.65;2.42;;;;;;;27.67;49.56;100929.84;5036141;28;20057;-76
2022/07/05 01:37:10;;;;;;;4.47;2.33;;;;;;;27.67;49.66;100932.56;5034474;28;20045;-77
2022/07/05 01:39:37;;;;;;;5.78;2.47;;;;;;;27.68;49.55;100945.16;5034816;28;20053;-77
2022/07/05 01:42:06;;;;;;;4.55;2.42;;;;;;;27.68;49.41;100937.00;5034682;28;20056;-77
2022/07/05 01:44:33;;;;;;;4.82;2.40;;;;;;;27.67;49.71;100941.59;5035568;28;20045;-77
2022/07/05 01:47:06;;;;;;;5.68;3.25;;;;;;;27.68;49.59;100937.84;5035542;28;20042;-78
2022/07/05 01:49:43;;;;;;;3.78;2.47;;;;;;;27.69;49.72;100933.22;5036133;28;20064;-77
2022/07/05 01:52:12;;;;;;;5.25;2.35;;;;;;;27.70;49.87;100937.63;5051558;28;20049;-77
2022/07/05 01:54:41;;;;;;;5.18;2.75;;;;;;;27.69;49.88;100933.22;5034729;28;20057;-77
2022/07/05 01:57:09;;;;;;;4.05;2.42;;;;;;;27.70;49.71;100930.31;5033239;28;20094;-77
2022/07/05 01:59:37;;;;;;;4.72;2.50;;;;;;;27.70;49.62;100938.47;5032780;28;20065;-78
2022/07/05 02:02:07;;;;;;;3.78;2.47;;;;;;;27.71;49.58;100932.03;5050054;28;20057;-78
2022/07/05 02:04:35;;;;;;;3.38;2.28;;;;;;;27.72;49.58;100933.72;5033288;28;20068;-77
2022/07/05 02:07:07;;;;;;;3.28;2.10;;;;;;;27.71;49.65;100931.16;5033362;28;20076;-78
2022/07/05 02:09:37;;;;;;;6.07;2.97;;;;;;;27.72;49.67;100932.88;5033961;28;20057;-77
2022/07/05 02:12:05;;;;;;;4.40;3.03;;;;;;;27.72;49.86;100936.44;5050173;28;20200;-77
2022/07/05 02:14:33;;;;;;;3.53;2.40;;;;;;;27.72;49.82;100935.59;5032639;28;20068;-77
2022/07/05 02:17:05;;;;;;;3.47;2.50;;;;;;;27.72;49.57;100941.88;5032893;28;20045;-77
2022/07/05 02:19:37;;;;;;;4.38;2.45;;;;;;;27.73;49.78;100945.44;5027182;28;20072;-76
2022/07/05 02:22:05;;;;;;;;;;;;;;;27.74;49.69;100964.31;5035073;28;20053;-76
2022/07/05 02:24:33;;;;;;;3.70;2.45;;;;;;;27.73;49.61;100951.75;5032938;28;19921;-76
2022/07/05 02:27:11;;;;;;;4.38;2.50;;;;;;;27.73;49.72;100950.88;5033070;28;20131;-76
2022/07/05 02:29:40;;;;;;;4.25;2.70;;;;;;;27.73;49.79;100953.59;5029924;28;20046;-76
2022/07/05 02:32:08;;;;;;;6.25;3.22;;;;;;;27.74;49.38;100955.31;5013884;28;20417;-75
2022/07/05 02:34:35;;;;;;;3.85;2.75;;;;;;;27.73;49.63;100946.31;5014357;28;20056;-75
2022/07/05 02:37:03;;;;;;;4.50;3.00;;;;;;;27.74;49.39;100953.44;5014554;28;20050;-76
2022/07/05 02:39:30;;;;;;;6.28;2.80;;;;;;;27.73;49.27;100959.91;5014582;28;20046;-75
2022/07/05 02:41:59;;;;;;;5.25;2.35;;;;;;;27.74;49.81;100960.75;5012976;28;20383;-75
2022/07/05 02:44:27;;;;;;;3.50;2.60;;;;;;;27.75;49.57;100967.88;5013828;28;20074;-75
2022/07/05 02:46:54;;;;;;;4.45;2.47;;;;;;;27.75;49.34;100976.91;5014224;28;20053;-75
2022/07/05 02:49:24;;;;;;;5.95;2.70;;;;;;;27.76;49.76;100980.47;5014560;28;20054;-75
2022/07/05 02:51:52;;;;;;;4.13;2.70;;;;;;;27.76;49.36;100975.88;5014009;28;20057;-75
2022/07/05 02:54:20;;;;;;;3.45;2.25;;;;;;;27.76;49.69;100977.75;5012829;28;20057;-75
2022/07/05 02:56:47;;;;;;;6.03;2.97;;;;;;;27.77;49.57;100982.16;5013357;28;20061;-75
2022/07/05 02:59:16;;;;;;;3.80;2.42;;;;;;;27.77;49.31;100971.28;5013507;28;20065;-77
2022/07/05 03:01:43;;;;;;;3.53;2.38;;;;;;;27.76;49.30;100978.59;5014055;28;20054;-77
2022/07/05 03:04:14;;;;;;;4.43;2.80;;;;;;;27.77;49.53;100983.00;5014118;28;20058;-77
2022/07/05 03:06:48;;;;;;;5.97;2.75;;;;;;;27.77;49.62;100974.00;5013372;28;20050;-77
2022/07/05 03:09:21;;;;;;;6.63;2.67;;;;;;;27.78;49.28;100976.53;5031641;28;20049;-76
2022/07/05 03:11:49;;;;;;;4.20;2.53;;;;;;;27.78;49.55;100978.41;5032272;28;20061;-77
2022/07/05 03:14:17;;;;;;;3.65;2.30;;;;;;;27.77;49.27;100983.00;5033265;28;20049;-78
2022/07/05 03:16:46;;;;;;;6.70;3.13;;;;;;;27.79;49.17;100988.25;5016573;28;20385;-75
2022/07/05 03:19:14;;;;;;;4.00;2.45;;;;;;;27.78;49.55;100992.00;5030077;28;20046;-74
2022/07/05 03:21:42;;;;;;;8.18;2.75;;;;;;;27.76;49.17;100994.91;5028621;28;20500;-75
2022/07/05 03:24:10;;;;;;;5.32;2.90;;;;;;;27.76;49.24;100988.63;5031991;28;20053;-74
2022/07/05 03:26:39;;;;;;;4.82;3.05;;;;;;;27.76;48.85;100994.06;5031401;28;20045;-75
2022/07/05 03:29:06;;;;;;;6.25;2.88;;;;;;;27.75;49.21;100990.50;5025241;28;20058;-78
2022/07/05 03:31:35;;;;;;;5.85;2.78;;;;;;;27.75;49.63;100995.94;5012116;28;20141;-74
2022/07/05 03:34:04;;;;;;;7.55;2.97;;;;;;;27.75;49.49;100997.81;5011929;28;20053;-75
2022/07/05 03:36:32;;;;;;;5.53;3.08;;;;;;;27.74;49.59;100988.78;5011988;28;20045;-74
2022/07/05 03:39:04;;;;;;;5.90;3.08;;;;;;;27.73;49.48;100999.84;5012310;28;20409;-74
2022/07/05 03:41:33;;;;;;;3.70;2.85;;;;;;;27.72;49.05;100988.13;5011866;28;20124;-75
2022/07/05 03:44:01;;;;;;;7.00;3.05;;;;;;;27.73;49.53;100992.56;5011991;28;20064;-74
2022/07/05 03:46:29;;;;;;;5.38;2.92;;;;;;;27.73;49.14;100991.69;5013017;28;20042;-74
2022/07/05 03:48:56;;;;;;;6.45;3.13;;;;;;;27.72;49.43;100999.00;5012280;28;20065;-75
2022/07/05 03:51:24;;;;;;;4.68;2.90;;;;;;;27.72;49.36;100992.72;5013446;28;20053;-75
2022/07/05 03:53:54;;;;;;;4.53;2.78;;;;;;;27.72;49.55;100993.56;5012397;28;20057;-75
2022/07/05 03:56:23;;;;;;;4.05;2.90;;;;;;;27.72;49.33;100987.28;5012374;28;20050;-75
2022/07/05 03:58:52;;;;;;;5.50;3.33;;;;;;;27.72;49.07;100990.84;5011723;28;20061;-74
2022/07/05 04:01:20;;;;;;;4.63;3.03;;;;;;;27.72;49.30;100988.13;5013090;28;20046;-74
2022/07/05 04:03:48;;;;;;;7.40;3.08;;;;;;;27.74;49.14;100982.50;5011427;28;20049;-74
2022/07/05 04:06:16;;;;;;;6.43;3.35;;;;;;;27.72;49.09;100981.84;5011548;28;20056;-74
2022/07/05 04:08:44;;;;;;;7.10;3.75;;;;;;;27.72;48.82;100974.53;5012441;28;20061;-75
2022/07/05 04:11:13;;;;;;;5.55;2.90;;;;;;;27.73;49.14;100969.91;5013237;28;20053;-74
2022/07/05 04:13:43;;;;;;;4.53;2.97;;;;;;;27.72;49.18;100958.19;5011858;28;20057;-75
2022/07/05 04:16:12;;;;;;;5.63;3.10;;;;;;;27.73;49.08;100959.03;5013218;28;20045;-74
2022/07/05 04:18:39;;;;;;;6.05;2.85;;;;;;;27.73;49.13;100959.03;5011500;28;20064;-74
2022/07/05 04:21:07;;;;;;;8.10;3.00;;;;;;;27.72;49.01;100966.34;5023460;28;20053;-74
2022/07/05 04:23:34;;;;;;;4.95;2.50;;;;;;;27.72;48.80;100971.78;5035580;28;20493;-74
2022/07/05 04:26:03;;;;;;;8.32;3.50;;;;;;;27.73;48.66;100967.19;5035280;28;20128;-75
2022/07/05 04:28:42;;;;;;;6.20;2.88;;;;;;;27.73;49.01;100964.47;5030980;28;20521;-75
2022/07/05 04:31:13;;;;;;;4.72;2.80;;;;;;;27.73;49.13;100961.75;5031766;28;20060;-74
2022/07/05 04:33:44;;;;;;;4.70;3.45;;;;;;;27.74;48.63;100960.75;5015771;28;20521;-74
2022/07/05 04:36:16;;;;;;;4.00;2.70;;;;;;;27.72;48.10;100962.78;5048940;28;20129;-74
2022/07/05 04:38:44;;;;;;;4.88;3.25;;;;;;;27.73;48.22;100953.59;5015501;28;20049;-74
2022/07/05 04:41:12;;;;;;;6.35;3.17;;;;;;;27.72;48.61;100946.47;5016080;28;20054;-74
2022/07/05 04:43:40;;;;;;;4.20;2.75;;;;;;;27.73;49.08;100954.47;5015834;28;20057;-74
2022/07/05 04:46:11;;;;;;;5.47;2.70;;;;;;;27.74;48.78;100964.31;5031749;28;20502;-74
2022/07/05 04:48:38;;;;;;;7.97;3.53;;;;;;;27.73;49.16;100953.59;5015440;28;20053;-74
2022/07/05 04:51:08;;;;;;;6.50;3.30;;;;;;;27.73;48.98;100954.47;5015235;28;20065;-74
2022/07/05 04:53:35;;;;;;;4.53;2.83;;;;;;;27.72;48.69;100950.03;5014843;28;20069;-74
2022/07/05 04:56:05;;;;;;;5.50;3.05;;;;;;;27.72;48.81;100941.88;5015954;28;20072;-74
2022/07/05 04:58:32;;;;;;;5.35;2.83;;;;;;;27.72;49.19;100943.75;5016152;28;20061;-74
2022/07/05 05:00:59;;;;;;;6.75;3.13;;;;;;;27.73;49.01;100951.75;5015788;28;20054;-75
2022/07/05 05:03:27;;;;;;;4.53;2.95;;;;;;;27.73;49.41;100951.75;5031291;28;20053;-74
2022/07/05 05:05:54;;;;;;;3.53;2.47;;;;;;;27.73;49.03;100950.88;5015662;28;20052;-74
2022/07/05 05:08:22;;;;;;;4.57;3.28;;;;;;;27.73;49.43;100951.75;5015980;28;20053;-74
2022/07/05 05:10:49;;;;;;;5.78;3.15;;;;;;;27.74;49.02;100947.16;5034271;28;20050;-75
2022/07/05 05:13:16;;;;;;;5.82;3.03;;;;;;;27.74;49.02;100949.88;5035808;28;20045;-74
2022/07/05 05:15:44;;;;;;;6.00;3.00;;;;;;;27.74;49.08;100942.56;5034422;28;20515;-75
2022/07/05 05:18:11;;;;;;;4.30;3.03;;;;;;;27.74;49.02;100936.28;5035579;28;20045;-74
2022/07/05 05:20:38;;;;;;;5.78;3.10;;;;;;;27.75;49.14;100932.50;5035120;28;20049;-74
2022/07/05 05:23:07;;;;;;;4.45;2.88;;;;;;;27.75;49.36;100921.63;5032271;28;20485;-74
2022/07/05 05:25:35;;;;;;;6.55;3.10;;;;;;;27.74;49.33;100939.00;5035052;28;20057;-74
2022/07/05 05:28:03;;;;;;;6.40;3.20;;;;;;;27.75;49.01;100930.66;5033312;28;20046;-74
2022/07/05 05:30:30;;;;;;;6.05;3.15;;;;;;;27.75;49.43;100936.09;5016454;28;20050;-74
2022/07/05 05:32:58;;;;;;;3.88;3.22;;;;;;;27.75;49.33;100932.50;5016128;28;20490;-75
2022/07/05 05:35:25;;;;;;;5.93;2.80;;;;;;;27.76;49.29;100928.78;5015192;28;20052;-74
2022/07/05 05:37:54;;;;;;;6.07;3.38;;;;;;;27.76;49.00;100924.19;5015625;28;20046;-75
2022/07/05 05:40:23;;;;;;;6.95;3.40;;;;;;;27.77;49.11;100923.16;5015495;28;20117;-74
2022/07/05 05:42:51;;;;;;;4.60;3.47;;;;;;;27.77;49.00;100914.16;5014973;28;20046;-74
2022/07/05 05:45:19;;;;;;;6.93;3.20;;;;;;;27.78;48.96;100924.00;5015340;28;20046;-75
2022/07/05 05:47:50;;;;;;;5.10;2.72;;;;;;;27.78;49.04;100924.00;5015095;28;20045;-75
2022/07/05 05:50:22;;;;;;;4.93;3.35;;;;;;;27.78;49.10;100924.00;5015093;28;20045;-75
2022/07/05 05:52:50;;;;;;;5.50;3.45;;;;;;;27.79;49.24;100922.94;5015049;28;20050;-74
2022/07/05 05:55:18;;;;;;;7.55;3.20;;;;;;;27.80;49.50;100924.66;5015024;28;20046;-74
2022/07/05 05:57:47;;;;;;;7.97;3.63;;;;;;;27.80;49.55;100930.09;5013299;28;20069;-74
2022/07/05 06:00:15;;;;;;;7.47;3.10;;;;;;;27.77;49.67;100930.47;5015205;28;20053;-74
2022/07/05 06:02:44;;;;;;;6.75;3.38;;;;;;;27.74;49.53;100939.84;5014994;28;20056;-74
2022/07/05 06:05:12;;;;;;;7.63;3.35;;;;;;;27.72;49.34;100943.75;5014840;28;20042;-74
2022/07/05 06:07:58;;;;;;;7.97;3.83;;;;;;;27.69;48.88;100938.69;5015165;28;20038;-75
2022/07/05 06:10:30;;;;;;;9.13;3.22;;;;;;;27.65;48.79;100953.69;5014901;28;20073;-74
2022/07/05 06:13:00;;;;;;;9.52;3.38;;;;;;;27.59;47.93;100950.66;5014563;28;20072;-75
2022/07/05 06:15:27;;;;;;;9.57;3.28;;;;;;;27.56;47.77;100952.91;5045725;28;20036;-74
2022/07/05 06:17:55;;;;;;;6.75;3.10;;;;;;;27.52;47.12;100955.16;5054585;28;20345;-76
2022/07/05 06:20:30;;;;;;;6.40;3.13;;;;;;;27.50;46.83;100954.47;5053050;28;20052;-76
2022/07/05 06:22:59;;;;;;;9.05;3.20;;;;;;;27.48;46.61;100944.81;5054987;28;20052;-74
2022/07/05 06:25:27;;;;;;;7.78;2.97;;;;;;;27.43;46.70;100944.50;5053984;28;20049;-74
2022/07/05 06:28:00;;;;;;;5.30;3.05;;;;;;;27.41;46.70;100950.13;5052877;28;20048;-74
2022/07/05 06:30:28;;;;;;;;;;;;;;;27.41;47.01;100954.72;5055723;28;20448;-74
2022/07/05 06:32:56;;;;;;;5.82;2.78;;;;;;;27.40;46.85;100943.00;5054098;28;20365;-75
2022/07/05 06:35:23;;;;;;;7.38;2.47;;;;;;;27.41;47.31;100949.28;5054008;28;20048;-75
2022/07/05 06:38:01;;;;;;;7.97;2.75;;;;;;;27.41;47.24;100955.56;5052494;28;20465;-75
2022/07/05 06:40:31;;;;;;;7.30;3.22;;;;;;;27.41;47.27;100952.00;5054048;28;20032;-74
2022/07/05 06:43:01;;;;;;;6.63;2.55;;;;;;;27.41;46.85;100963.72;5053796;28;20045;-74
2022/07/05 06:46:00;;;;;;;8.73;3.00;;;;;;;27.44;47.07;100960.66;5051505;28;20052;-74
2022/07/05 06:48:28;;;;;;;4.70;2.58;;;;;;;27.45;47.24;100954.19;5053975;28;20048;-74
2022/07/05 06:50:56;;;;;;;5.88;2.70;;;;;;;27.45;47.07;100947.91;5036676;28;20053;-74
2022/07/05 06:53:23;;;;;;;4.72;2.83;;;;;;;27.46;47.36;100944.97;5053517;28;20052;-74
2022/07/05 06:55:51;;;;;;;5.55;2.60;;;;;;;27.47;47.50;100954.00;5054045;28;20045;-76
2022/07/05 06:58:23;;;;;;;4.35;2.75;;;;;;;27.46;47.30;100953.13;5053053;28;20495;-75
2022/07/05 07:00:50;;;;;;;5.78;2.55;;;;;;;27.46;47.42;100958.56;5043983;28;20045;-75
2022/07/05 07:03:38;;;;;;;4.55;2.67;;;;;;;27.45;47.78;100953.34;5034401;28;20048;-75
2022/07/05 07:06:25;;;;;;;5.05;2.90;;;;;;;27.45;47.97;100972.38;5034244;28;20041;-74
2022/07/05 07:11:38;;;;;;;6.25;3.13;;;;;;;27.45;48.52;100966.94;5034660;28;20089;-74
2022/07/05 07:14:05;;;;;;;4.88;2.67;;;;;;;27.44;48.24;100962.53;5033470;28;20397;-74
2022/07/05 07:16:32;;;;;;;5.30;3.10;;;;;;;27.44;48.66;100962.53;5033718;28;20056;-74
2022/07/05 07:19:00;;;;;;;5.57;3.22;;;;;;;27.45;48.46;100966.94;5033972;28;20048;-74
2022/07/05 07:21:39;;;;;;;9.30;3.30;;;;;;;27.45;47.97;100969.66;5034364;28;20500;-75
2022/07/05 07:24:08;;;;;;;5.95;3.20;;;;;;;27.44;48.40;100976.97;5032525;28;20049;-75
2022/07/05 07:29:22;;;;;;;6.18;2.85;;;;;;;27.46;48.18;100972.16;5033067;28;20041;-75
2022/07/05 07:31:49;;;;;;;7.47;2.70;;;;;;;27.48;48.17;100972.84;5033118;28;20060;-75
2022/07/05 07:34:17;;;;;;;8.45;3.30;;;;;;;27.50;48.44;100984.38;5033369;28;20056;-74
2022/07/05 07:36:44;;;;;;;9.77;3.65;;;;;;;27.51;48.70;100987.97;5033804;28;20045;-74
2022/07/05 07:39:11;;;;;;;7.63;3.10;;;;;;;27.53;48.87;100989.47;5033916;28;20050;-74
2022/07/05 07:41:39;;;;;;;3.97;2.90;;;;;;;27.55;48.76;100992.00;5034219;28;20057;-75
2022/07/05 07:44:06;;;;;;;5.25;3.08;;;;;;;27.56;49.30;100994.53;5034261;28;20054;-74
2022/07/05 07:46:33;;;;;;;6.55;3.38;;;;;;;27.58;49.55;101000.63;5033497;28;20052;-75
2022/07/05 07:49:01;;;;;;;4.30;3.17;;;;;;;27.58;49.25;100987.03;5033228;28;20045;-74
2022/07/05 07:51:29;;;;;;;4.40;3.22;;;;;;;27.59;49.21;100988.75;5032930;28;20049;-75
2022/07/05 07:53:57;;;;;;;6.63;3.63;;;;;;;27.60;48.90;100990.44;5034666;28;20489;-74
2022/07/05 07:56:36;;;;;;;8.60;3.20;;;;;;;27.63;49.16;100978.34;5036823;28;20052;-74
2022/07/05 07:59:04;;;;;;;5.45;3.22;;;;;;;27.63;48.98;100982.91;5038408;28;20072;-74
2022/07/05 08:01:31;;;;;;;5.15;3.00;;;;;;;27.64;48.84;100985.47;5035575;28;20050;-74
2022/07/05 08:03:59;;;;;;;5.32;2.88;;;;;;;27.66;48.94;100986.13;5036950;28;20474;-74
2022/07/05 08:06:26;;;;;;;5.07;3.13;;;;;;;27.67;48.91;100982.38;5036392;28;20052;-74
2022/07/05 08:08:54;;;;;;;4.70;3.22;;;;;;;27.69;49.07;100984.91;5037198;28;20477;-74
2022/07/05 08:11:21;;;;;;;4.53;2.95;;;;;;;27.69;49.01;100988.47;5036640;28;20054;-74
2022/07/05 08:13:48;;;;;;;4.88;3.15;;;;;;;27.70;49.10;100994.75;5037110;28;20048;-74
2022/07/05 08:16:16;;;;;;;5.30;3.20;;;;;;;27.70;48.64;100992.88;5034951;28;20151;-74
2022/07/05 08:21:32;;;;;;;5.43;3.05;;;;;;;27.72;48.52;100990.00;5036205;28;20053;-74
2022/07/05 08:24:07;;;;;;;6.55;2.97;;;;;;;27.73;48.80;100999.84;5036614;28;20045;-75
2022/07/05 08:26:35;;;;;;;5.22;3.17;;;;;;;27.74;48.53;100996.13;5036805;28;20049;-75
2022/07/05 08:29:05;;;;;;;5.95;3.08;;;;;;;27.74;48.57;100996.97;5035861;28;20045;-74
2022/07/05 08:31:38;;;;;;;6.32;2.90;;;;;;;27.75;48.96;100995.06;5036888;28;20060;-75
2022/07/05 08:34:05;;;;;;;5.10;2.97;;;;;;;27.76;48.61;100999.50;5035175;28;20045;-74
2022/07/05 08:36:33;;;;;;;3.88;2.97;;;;;;;27.76;48.71;100994.06;5036686;28;20409;-76
2022/07/05 08:39:01;;;;;;;4.53;3.00;;;;;;;27.77;48.87;100995.75;5036399;28;20049;-74
2022/07/05 08:41:29;;;;;;;5.35;2.88;;;;;;;27.78;48.77;100997.44;5034898;28;20045;-74
2022/07/05 08:43:57;;;;;;;4.38;2.78;;;;;;;27.79;48.85;100993.69;5034545;28;20046;-75
2022/07/05 08:46:25;;;;;;;3.25;2.50;;;;;;;27.80;48.98;101000.84;5036184;28;20049;-75
2022/07/05 08:48:55;;;;;;;5.88;2.85;;;;;;;27.79;48.48;100993.69;5036907;28;20038;-74
2022/07/05 08:51:23;;;;;;;4.40;2.45;;;;;;;27.80;48.55;100996.25;5035647;28;20482;-74
2022/07/05 08:53:52;;;;;;;4.15;2.83;;;;;;;27.82;48.74;100987.88;5035854;28;20056;-75
2022/07/05 08:56:20;;;;;;;3.50;2.47;;;;;;;27.82;48.65;100987.88;5036259;28;20041;-74
2022/07/05 08:59:05;;;;;;;5.00;3.13;;;;;;;27.82;48.69;100983.28;5035988;28;20072;-74
2022/07/05 09:01:34;;;;;;;3.70;2.40;;;;;;;27.83;48.44;100978.69;5034716;28;20049;-74
2022/07/05 09:04:05;;;;;;;3.45;2.58;;;;;;;27.83;48.75;100978.69;5035840;28;20056;-74
2022/07/05 09:06:37;;;;;;;3.45;2.60;;;;;;;27.84;48.75;100983.97;5033901;28;20049;-74
2022/07/05 09:09:06;;;;;;;6.50;2.80;;;;;;;27.85;48.78;100973.91;5036376;28;20042;-74
2022/07/05 09:11:38;;;;;;;6.90;3.17;;;;;;;27.85;48.66;100980.19;5035709;28;20049;-74
2022/07/05 09:14:07;;;;;;;4.82;3.03;;;;;;;27.85;48.61;100969.31;5035864;28;20508;-75
2022/07/05 09:16:56;;;;;;;3.83;2.30;;;;;;;27.87;48.31;100979.16;5035321;28;20052;-75
2022/07/05 09:19:23;;;;;;;4.38;2.40;;;;;;;27.87;48.73;100982.72;5035372;28;20037;-74
2022/07/05 09:22:02;;;;;;;3.53;2.65;;;;;;;27.87;48.68;100990.88;5035308;28;20052;-74
2022/07/05 09:24:31;;;;;;;3.75;2.70;;;;;;;27.88;48.42;100973.56;5035708;28;20045;-75
2022/07/05 09:27:04;;;;;;;5.85;2.75;;;;;;;27.89;48.49;100979.84;5035854;28;20049;-74
2022/07/05 09:29:31;;;;;;;5.40;2.70;;;;;;;27.88;48.41;100965.38;5033899;28;20049;-75
2022/07/05 09:32:24;;;;;;;2.88;2.30;;;;;;;27.89;48.76;100977.13;5034923;28;20068;-74
2022/07/05 09:34:52;;;;;;;4.20;2.97;;;;;;;27.90;48.33;100971.47;5034954;28;20056;-74
2022/07/05 09:37:19;;;;;;;4.40;2.42;;;;;;;27.91;48.70;100970.44;5035052;28;20397;-74
2022/07/05 09:39:47;;;;;;;5.07;2.88;;;;;;;27.90;48.62;100966.03;5035165;28;20042;-74
2022/07/05 09:42:23;;;;;;;4.10;2.72;;;;;;;27.91;48.37;100973.16;5033010;28;20057;-75
2022/07/05 09:44:58;;;;;;;5.30;3.10;;;;;;;27.93;48.68;100967.56;5035222;28;20404;-74
2022/07/05 09:47:29;;;;;;;5.82;3.10;;;;;;;27.92;48.53;100964.00;5034829;28;20049;-75
2022/07/05 09:50:05;;;;;;;4.53;2.70;;;;;;;27.92;48.53;100964.00;5034920;28;20041;-74
2022/07/05 09:52:41;;;;;;;3.30;2.70;;;;;;;27.93;48.46;100965.66;5033037;28;20049;-74
2022/07/05 09:55:18;;;;;;;3.13;2.30;;;;;;;27.93;48.51;100962.94;5034942;28;20417;-74
2022/07/05 09:57:47;;;;;;;7.45;3.08;;;;;;;27.95;48.78;100965.47;5034763;28;20480;-74
2022/07/05 10:00:19;;;;;;;4.68;2.65;;;;;;;27.95;48.70;100965.47;5032801;28;20049;-75
2022/07/05 10:03:00;;;;;;;3.08;2.60;;;;;;;27.95;48.53;100960.88;5034605;28;20041;-74
2022/07/05 10:05:31;;;;;;;3.17;2.70;;;;;;;27.96;48.75;100948.97;5034565;28;20068;-74
2022/07/05 10:08:02;;;;;;;4.20;2.40;;;;;;;27.97;48.36;100955.25;5034304;28;20401;-75
2022/07/05 10:10:31;;;;;;;4.35;2.97;;;;;;;27.97;48.38;100956.09;5034877;28;20053;-74
2022/07/05 10:13:01;;;;;;;4.13;2.70;;;;;;;27.97;48.48;100953.38;5034092;28;20054;-74
2022/07/05 10:15:33;;;;;;;3.20;2.70;;;;;;;27.97;48.69;100953.38;5034357;28;20053;-74
2022/07/05 10:18:08;;;;;;;3.88;2.58;;;;;;;27.98;48.84;100943.34;5032978;28;20057;-74
2022/07/05 10:20:45;;;;;;;3.97;2.88;;;;;;;27.98;48.78;100948.78;5033084;28;20057;-74
2022/07/05 10:23:13;;;;;;;4.32;2.92;;;;;;;27.98;48.76;100938.75;5034445;28;20052;-74
2022/07/05 10:25:47;;;;;;;3.67;2.47;;;;;;;27.98;48.79;100946.91;5033898;28;20218;-74
2022/07/05 10:28:19;;;;;;;3.30;2.50;;;;;;;27.99;48.58;100943.13;5033675;28;20048;-74
2022/07/05 10:30:51;;;;;;;4.45;2.88;;;;;;;28.00;48.66;100944.00;5034363;28;20064;-75
2022/07/05 10:33:26;;;;;;;4.45;2.78;;;;;;;28.00;48.65;100944.84;5016778;28;20049;-74
2022/07/05 10:35:54;;;;;;;4.82;3.00;;;;;;;28.00;48.36;100941.28;5034152;28;20076;-75
2022/07/05 10:38:22;;;;;;;3.47;2.50;;;;;;;28.01;48.36;100945.69;5033896;28;20061;-74
2022/07/05 10:40:54;;;;;;;4.88;2.53;;;;;;;28.02;48.71;100939.22;5034318;28;20064;-74
2022/07/05 10:43:26;;;;;;;4.68;3.10;;;;;;;28.02;48.54;100941.94;5033558;28;20053;-74
2022/07/05 10:45:53;;;;;;;3.38;2.47;;;;;;;28.02;48.45;100934.63;5035252;28;20053;-74
2022/07/05 10:48:23;;;;;;;3.15;2.70;;;;;;;28.02;48.56;100931.88;5034716;28;20049;-74
2022/07/05 10:50:53;;;;;;;5.22;3.20;;;;;;;28.03;48.67;100930.84;5034161;28;20038;-75
2022/07/05 10:53:49;;;;;;;3.53;2.80;;;;;;;28.03;48.43;100947.19;5034252;28;20417;-75
2022/07/05 10:56:16;;;;;;;5.15;3.00;;;;;;;28.03;48.43;100930.00;5032145;28;20057;-74
2022/07/05 10:58:47;;;;;;;3.63;2.63;;;;;;;28.03;48.71;100925.41;5033764;28;20481;-74
2022/07/05 11:01:18;;;;;;;3.50;3.15;;;;;;;28.04;48.43;100921.69;5033632;28;20068;-74
2022/07/05 11:03:58;;;;;;;2.88;2.58;;;;;;;28.04;48.40;100926.28;5034552;28;20053;-75
2022/07/05 11:06:31;;;;;;;6.65;3.03;;;;;;;28.04;48.62;100932.56;5033530;28;20397;-74
2022/07/05 11:09:05;;;;;;;;;;;;;;;28.05;48.40;100922.53;5034115;28;20056;-75
2022/07/05 11:11:34;;;;;;;3.45;2.72;;;;;;;28.06;48.56;100924.19;5034231;28;19928;-74
2022/07/05 11:14:20;;;;;;;3.63;3.00;;;;;;;28.05;48.41;100917.06;5033841;28;20056;-74
2022/07/05 11:17:11;;;;;;;5.60;3.00;;;;;;;28.05;48.66;100912.47;5032743;28;20057;-74
2022/07/05 11:20:19;;;;;;;3.50;2.90;;;;;;;28.06;48.71;100910.59;5033208;28;20053;-74
2022/07/05 11:23:03;;;;;;;3.17;2.60;;;;;;;28.07;48.42;100904.09;5032271;28;20053;-74
2022/07/05 11:25:32;;;;;;;3.60;2.33;;;;;;;28.08;48.83;100900.38;5033144;28;20049;-74
2022/07/05 11:28:24;;;;;;;5.28;2.72;;;;;;;28.08;48.82;100894.94;5033476;28;20041;-74
2022/07/05 11:30:59;;;;;;;3.40;3.00;;;;;;;28.08;48.63;100893.06;5032306;28;20519;-75
2022/07/05 11:33:43;;;;;;;3.75;2.70;;;;;;;28.08;48.67;100895.78;5033964;28;20046;-74
2022/07/05 11:36:28;;;;;;;5.22;2.55;;;;;;;28.10;49.19;100887.41;5032527;28;20060;-74
2022/07/05 11:39:13;;;;;;;4.90;2.78;;;;;;;28.10;49.20;100892.84;5032590;28;20053;-74
2022/07/05 11:41:43;;;;;;;4.93;2.78;;;;;;;28.13;49.24;100886.19;5031789;28;20049;-76
2022/07/05 11:44:12;;;;;;;4.20;2.78;;;;;;;28.12;49.30;100890.81;5033913;28;20049;-75
2022/07/05 11:46:41;;;;;;;4.65;2.65;;;;;;;28.13;48.97;100887.03;5033563;28;20050;-75
2022/07/05 11:49:22;;;;;;;4.30;2.42;;;;;;;28.15;49.44;100895.00;5033693;28;20401;-75